sensor_id;sensor_type;location;lat;lon;timestamp;temperature;humidity
13482;DHT22;6813;60.352;15.746;2023-07-31T00:00:34;17.60;99.90
13482;DHT22;6813;60.352;15.746;2023-07-31T00:02:59;17.70;99.90
13482;DHT22;6813;60.352;15.746;2023-07-31T00:05:25;17.60;99.90
13482;DHT22;6813;60.352;15.746;2023-07-31T00:07:51;17.70;99.90
13482;DHT22;6813;60.352;15.746;2023-07-31T00:10:17;17.70;99.90
13482;DHT22;6813;60.352;15.746;2023-07-31T00:12:44;17.60;99.90
13482;DHT22;6813;60.352;15.746;2023-07-31T00:15:10;17.60;99.90
13482;DHT22;6813;60.352;15.746;2023-07-31T00:17:36;17.60;99.90
13482;DHT22;6813;60.352;15.746;2023-07-31T00:20:02;17.70;99.90
13482;DHT22;6813;60.352;15.746;2023-07-31T00:22:28;17.70;99.90
13482;DHT22;6813;60.352;15.746;2023-07-31T00:24:55;17.70;99.90
13482;DHT22;6813;60.352;15.746;2023-07-31T00:27:21;17.70;99.90
13482;DHT22;6813;60.352;15.746;2023-07-31T00:29:47;17.70;99.90
13482;DHT22;6813;60.352;15.746;2023-07-31T00:32:13;17.70;99.90
13482;DHT22;6813;60.352;15.746;2023-07-31T00:34:38;17.70;99.90
13482;DHT22;6813;60.352;15.746;2023-07-31T00:37:04;17.70;99.90
13482;DHT22;6813;60.352;15.746;2023-07-31T00:39:30;17.70;99.90
13482;DHT22;6813;60.352;15.746;2023-07-31T00:41:56;17.60;99.90
13482;DHT22;6813;60.352;15.746;2023-07-31T00:44:22;17.60;99.90
13482;DHT22;6813;60.352;15.746;2023-07-31T00:46:48;17.70;99.90
13482;DHT22;6813;60.352;15.746;2023-07-31T00:49:14;17.70;99.90
13482;DHT22;6813;60.352;15.746;2023-07-31T00:51:40;17.60;99.90
13482;DHT22;6813;60.352;15.746;2023-07-31T00:54:06;17.60;99.90
13482;DHT22;6813;60.352;15.746;2023-07-31T00:56:32;17.60;99.90
13482;DHT22;6813;60.352;15.746;2023-07-31T00:58:58;17.60;99.90
13482;DHT22;6813;60.352;15.746;2023-07-31T01:01:24;17.60;99.90
13482;DHT22;6813;60.352;15.746;2023-07-31T01:03:51;17.60;99.90
13482;DHT22;6813;60.352;15.746;2023-07-31T01:06:40;17.60;99.90
13482;DHT22;6813;60.352;15.746;2023-07-31T01:12:15;17.50;99.90
13482;DHT22;6813;60.352;15.746;2023-07-31T01:15:12;17.40;99.90
13482;DHT22;6813;60.352;15.746;2023-07-31T01:17:40;17.50;99.90
13482;DHT22;6813;60.352;15.746;2023-07-31T01:20:31;17.40;99.90
13482;DHT22;6813;60.352;15.746;2023-07-31T01:26:05;17.50;99.90
13482;DHT22;6813;60.352;15.746;2023-07-31T01:31:26;17.30;99.90
13482;DHT22;6813;60.352;15.746;2023-07-31T01:33:54;17.20;99.90
13482;DHT22;6813;60.352;15.746;2023-07-31T01:36:20;17.10;99.90
13482;DHT22;6813;60.352;15.746;2023-07-31T01:38:46;17.20;99.90
13482;DHT22;6813;60.352;15.746;2023-07-31T01:41:12;17.20;99.90
13482;DHT22;6813;60.352;15.746;2023-07-31T01:43:38;17.20;99.90
13482;DHT22;6813;60.352;15.746;2023-07-31T01:46:04;17.20;99.90
13482;DHT22;6813;60.352;15.746;2023-07-31T01:48:30;17.30;99.90
13482;DHT22;6813;60.352;15.746;2023-07-31T01:51:01;17.30;99.90
13482;DHT22;6813;60.352;15.746;2023-07-31T01:53:27;17.30;99.90
13482;DHT22;6813;60.352;15.746;2023-07-31T01:55:53;17.30;99.90
13482;DHT22;6813;60.352;15.746;2023-07-31T01:58:19;17.30;99.90
13482;DHT22;6813;60.352;15.746;2023-07-31T02:00:44;17.30;99.90
13482;DHT22;6813;60.352;15.746;2023-07-31T02:03:10;17.20;99.90
13482;DHT22;6813;60.352;15.746;2023-07-31T02:05:36;17.20;99.90
13482;DHT22;6813;60.352;15.746;2023-07-31T02:08:01;17.20;99.90
13482;DHT22;6813;60.352;15.746;2023-07-31T02:10:27;17.20;99.90
13482;DHT22;6813;60.352;15.746;2023-07-31T02:12:53;17.10;99.90
13482;DHT22;6813;60.352;15.746;2023-07-31T02:15:18;17.10;99.90
13482;DHT22;6813;60.352;15.746;2023-07-31T02:17:44;17.10;99.90
13482;DHT22;6813;60.352;15.746;2023-07-31T02:20:10;17.00;99.90
13482;DHT22;6813;60.352;15.746;2023-07-31T02:22:36;17.00;99.90
13482;DHT22;6813;60.352;15.746;2023-07-31T02:25:01;17.00;99.90
13482;DHT22;6813;60.352;15.746;2023-07-31T02:27:27;16.90;99.90
13482;DHT22;6813;60.352;15.746;2023-07-31T02:29:53;16.90;99.90
13482;DHT22;6813;60.352;15.746;2023-07-31T02:32:19;16.80;99.90
13482;DHT22;6813;60.352;15.746;2023-07-31T02:34:45;16.70;99.90
13482;DHT22;6813;60.352;15.746;2023-07-31T02:37:11;16.70;99.90
13482;DHT22;6813;60.352;15.746;2023-07-31T02:39:36;16.70;99.90
13482;DHT22;6813;60.352;15.746;2023-07-31T02:42:02;16.70;99.90
13482;DHT22;6813;60.352;15.746;2023-07-31T02:44:28;16.60;99.90
13482;DHT22;6813;60.352;15.746;2023-07-31T02:46:53;16.60;99.90
13482;DHT22;6813;60.352;15.746;2023-07-31T02:49:19;16.60;99.90
13482;DHT22;6813;60.352;15.746;2023-07-31T02:51:45;16.60;99.90
13482;DHT22;6813;60.352;15.746;2023-07-31T02:54:10;16.50;99.90
13482;DHT22;6813;60.352;15.746;2023-07-31T02:56:36;16.50;99.90
13482;DHT22;6813;60.352;15.746;2023-07-31T02:59:02;16.50;99.90
13482;DHT22;6813;60.352;15.746;2023-07-31T03:01:27;16.50;99.90
13482;DHT22;6813;60.352;15.746;2023-07-31T03:03:53;16.50;99.90
13482;DHT22;6813;60.352;15.746;2023-07-31T03:06:19;16.40;99.90
13482;DHT22;6813;60.352;15.746;2023-07-31T03:08:44;16.40;99.90
13482;DHT22;6813;60.352;15.746;2023-07-31T03:11:10;16.40;99.90
13482;DHT22;6813;60.352;15.746;2023-07-31T03:13:36;16.30;99.90
13482;DHT22;6813;60.352;15.746;2023-07-31T03:16:01;16.20;99.90
13482;DHT22;6813;60.352;15.746;2023-07-31T03:18:27;16.20;99.90
13482;DHT22;6813;60.352;15.746;2023-07-31T03:20:53;16.10;99.90
13482;DHT22;6813;60.352;15.746;2023-07-31T03:23:18;16.10;99.90
13482;DHT22;6813;60.352;15.746;2023-07-31T03:26:02;16.00;99.90
13482;DHT22;6813;60.352;15.746;2023-07-31T03:28:29;16.10;99.90
13482;DHT22;6813;60.352;15.746;2023-07-31T03:30:55;16.00;99.90
13482;DHT22;6813;60.352;15.746;2023-07-31T03:33:21;16.00;99.90
13482;DHT22;6813;60.352;15.746;2023-07-31T03:35:47;15.80;99.90
13482;DHT22;6813;60.352;15.746;2023-07-31T03:38:12;15.60;99.90
13482;DHT22;6813;60.352;15.746;2023-07-31T03:40:38;15.60;99.90
13482;DHT22;6813;60.352;15.746;2023-07-31T03:43:05;15.70;99.90
13482;DHT22;6813;60.352;15.746;2023-07-31T03:45:30;15.80;99.90
13482;DHT22;6813;60.352;15.746;2023-07-31T03:47:56;15.80;99.90
13482;DHT22;6813;60.352;15.746;2023-07-31T03:50:22;15.80;99.90
13482;DHT22;6813;60.352;15.746;2023-07-31T03:52:48;15.90;99.90
13482;DHT22;6813;60.352;15.746;2023-07-31T03:55:14;16.00;99.90
13482;DHT22;6813;60.352;15.746;2023-07-31T03:57:39;16.00;99.90
13482;DHT22;6813;60.352;15.746;2023-07-31T04:00:05;16.00;99.90
13482;DHT22;6813;60.352;15.746;2023-07-31T04:02:31;16.10;99.90
13482;DHT22;6813;60.352;15.746;2023-07-31T04:04:57;16.10;99.90
13482;DHT22;6813;60.352;15.746;2023-07-31T04:07:22;16.10;99.90
13482;DHT22;6813;60.352;15.746;2023-07-31T04:09:48;16.10;99.90
13482;DHT22;6813;60.352;15.746;2023-07-31T04:12:14;16.10;99.90
13482;DHT22;6813;60.352;15.746;2023-07-31T04:14:39;16.10;99.90
13482;DHT22;6813;60.352;15.746;2023-07-31T04:17:05;16.10;99.90
13482;DHT22;6813;60.352;15.746;2023-07-31T04:19:31;16.00;99.90
13482;DHT22;6813;60.352;15.746;2023-07-31T04:21:56;16.10;99.90
13482;DHT22;6813;60.352;15.746;2023-07-31T04:24:22;16.10;99.90
13482;DHT22;6813;60.352;15.746;2023-07-31T04:26:51;16.30;99.90
13482;DHT22;6813;60.352;15.746;2023-07-31T04:29:17;16.40;99.90
13482;DHT22;6813;60.352;15.746;2023-07-31T04:31:43;16.60;99.90
13482;DHT22;6813;60.352;15.746;2023-07-31T04:34:08;16.70;99.90
13482;DHT22;6813;60.352;15.746;2023-07-31T04:36:34;16.80;99.90
13482;DHT22;6813;60.352;15.746;2023-07-31T04:39:01;16.80;99.90
13482;DHT22;6813;60.352;15.746;2023-07-31T04:41:26;16.90;99.90
13482;DHT22;6813;60.352;15.746;2023-07-31T04:43:52;17.00;99.90
13482;DHT22;6813;60.352;15.746;2023-07-31T04:46:18;17.10;99.90
13482;DHT22;6813;60.352;15.746;2023-07-31T04:48:44;17.20;99.90
13482;DHT22;6813;60.352;15.746;2023-07-31T04:51:09;17.40;99.90
13482;DHT22;6813;60.352;15.746;2023-07-31T04:53:35;17.50;99.90
13482;DHT22;6813;60.352;15.746;2023-07-31T04:56:01;17.60;99.90
13482;DHT22;6813;60.352;15.746;2023-07-31T04:58:27;17.70;99.90
13482;DHT22;6813;60.352;15.746;2023-07-31T05:00:52;18.00;99.90
13482;DHT22;6813;60.352;15.746;2023-07-31T05:03:18;18.20;99.90
13482;DHT22;6813;60.352;15.746;2023-07-31T05:05:44;18.40;99.90
13482;DHT22;6813;60.352;15.746;2023-07-31T05:08:09;18.70;99.90
13482;DHT22;6813;60.352;15.746;2023-07-31T05:10:35;18.90;99.90
13482;DHT22;6813;60.352;15.746;2023-07-31T05:13:01;19.00;99.90
13482;DHT22;6813;60.352;15.746;2023-07-31T05:15:26;19.20;99.90
13482;DHT22;6813;60.352;15.746;2023-07-31T05:17:52;19.20;99.90
13482;DHT22;6813;60.352;15.746;2023-07-31T05:20:18;19.30;99.90
13482;DHT22;6813;60.352;15.746;2023-07-31T05:22:43;19.50;99.90
13482;DHT22;6813;60.352;15.746;2023-07-31T05:25:09;19.70;99.90
13482;DHT22;6813;60.352;15.746;2023-07-31T05:27:35;19.90;99.90
13482;DHT22;6813;60.352;15.746;2023-07-31T05:30:00;20.10;99.90
13482;DHT22;6813;60.352;15.746;2023-07-31T05:32:26;20.10;99.90
13482;DHT22;6813;60.352;15.746;2023-07-31T05:34:52;20.20;99.90
13482;DHT22;6813;60.352;15.746;2023-07-31T05:37:19;20.30;99.90
13482;DHT22;6813;60.352;15.746;2023-07-31T05:39:44;20.30;99.90
13482;DHT22;6813;60.352;15.746;2023-07-31T05:42:10;20.30;99.90
13482;DHT22;6813;60.352;15.746;2023-07-31T05:44:36;20.20;99.90
13482;DHT22;6813;60.352;15.746;2023-07-31T05:47:01;20.20;99.90
13482;DHT22;6813;60.352;15.746;2023-07-31T05:49:27;20.20;99.90
13482;DHT22;6813;60.352;15.746;2023-07-31T05:51:53;20.20;99.90
13482;DHT22;6813;60.352;15.746;2023-07-31T05:54:18;20.30;99.90
13482;DHT22;6813;60.352;15.746;2023-07-31T05:56:44;20.70;99.90
13482;DHT22;6813;60.352;15.746;2023-07-31T05:59:12;21.00;99.90
13482;DHT22;6813;60.352;15.746;2023-07-31T06:01:38;21.20;99.90
13482;DHT22;6813;60.352;15.746;2023-07-31T06:04:03;21.60;99.90
13482;DHT22;6813;60.352;15.746;2023-07-31T06:06:29;21.90;99.90
13482;DHT22;6813;60.352;15.746;2023-07-31T06:08:55;22.10;99.90
13482;DHT22;6813;60.352;15.746;2023-07-31T06:11:21;22.40;99.90
13482;DHT22;6813;60.352;15.746;2023-07-31T06:13:47;22.80;99.90
13482;DHT22;6813;60.352;15.746;2023-07-31T06:16:14;23.20;99.90
13482;DHT22;6813;60.352;15.746;2023-07-31T06:18:41;23.50;99.90
13482;DHT22;6813;60.352;15.746;2023-07-31T06:21:07;23.60;99.90
13482;DHT22;6813;60.352;15.746;2023-07-31T06:23:33;23.90;99.90
13482;DHT22;6813;60.352;15.746;2023-07-31T06:25:59;24.00;99.90
13482;DHT22;6813;60.352;15.746;2023-07-31T06:28:28;24.00;99.90
13482;DHT22;6813;60.352;15.746;2023-07-31T06:30:57;24.20;99.90
13482;DHT22;6813;60.352;15.746;2023-07-31T06:33:23;24.40;99.90
13482;DHT22;6813;60.352;15.746;2023-07-31T06:35:49;24.60;99.90
13482;DHT22;6813;60.352;15.746;2023-07-31T06:38:15;24.90;99.90
13482;DHT22;6813;60.352;15.746;2023-07-31T06:40:40;25.20;99.90
13482;DHT22;6813;60.352;15.746;2023-07-31T06:43:06;25.10;99.40
13482;DHT22;6813;60.352;15.746;2023-07-31T06:45:35;25.10;99.10
13482;DHT22;6813;60.352;15.746;2023-07-31T06:48:01;25.20;99.10
13482;DHT22;6813;60.352;15.746;2023-07-31T06:50:31;25.40;97.80
13482;DHT22;6813;60.352;15.746;2023-07-31T06:52:57;25.60;98.80
13482;DHT22;6813;60.352;15.746;2023-07-31T06:55:23;25.90;98.00
13482;DHT22;6813;60.352;15.746;2023-07-31T06:57:50;26.20;97.50
13482;DHT22;6813;60.352;15.746;2023-07-31T07:00:17;26.30;97.40
13482;DHT22;6813;60.352;15.746;2023-07-31T07:02:43;26.40;96.60
13482;DHT22;6813;60.352;15.746;2023-07-31T07:05:09;26.30;96.10
13482;DHT22;6813;60.352;15.746;2023-07-31T07:07:35;26.20;96.70
13482;DHT22;6813;60.352;15.746;2023-07-31T07:10:01;26.40;96.50
13482;DHT22;6813;60.352;15.746;2023-07-31T07:12:30;26.70;96.70
13482;DHT22;6813;60.352;15.746;2023-07-31T07:14:56;26.80;94.90
13482;DHT22;6813;60.352;15.746;2023-07-31T07:17:23;27.00;97.40
13482;DHT22;6813;60.352;15.746;2023-07-31T07:19:49;27.00;93.60
13482;DHT22;6813;60.352;15.746;2023-07-31T07:22:15;26.90;95.20
13482;DHT22;6813;60.352;15.746;2023-07-31T07:24:41;26.80;95.20
13482;DHT22;6813;60.352;15.746;2023-07-31T07:27:07;26.70;95.50
13482;DHT22;6813;60.352;15.746;2023-07-31T07:29:34;26.60;96.20
13482;DHT22;6813;60.352;15.746;2023-07-31T07:32:00;26.80;95.20
13482;DHT22;6813;60.352;15.746;2023-07-31T07:34:27;26.60;96.70
13482;DHT22;6813;60.352;15.746;2023-07-31T07:36:53;26.10;94.90
13482;DHT22;6813;60.352;15.746;2023-07-31T07:39:19;26.20;95.30
13482;DHT22;6813;60.352;15.746;2023-07-31T07:41:44;26.50;96.00
13482;DHT22;6813;60.352;15.746;2023-07-31T07:44:10;26.60;95.40
13482;DHT22;6813;60.352;15.746;2023-07-31T07:46:36;26.80;96.20
13482;DHT22;6813;60.352;15.746;2023-07-31T07:49:01;27.30;95.20
13482;DHT22;6813;60.352;15.746;2023-07-31T07:51:27;27.00;93.80
13482;DHT22;6813;60.352;15.746;2023-07-31T07:53:53;26.80;91.40
13482;DHT22;6813;60.352;15.746;2023-07-31T07:56:19;26.30;91.70
13482;DHT22;6813;60.352;15.746;2023-07-31T07:58:45;26.60;95.10
13482;DHT22;6813;60.352;15.746;2023-07-31T08:01:13;26.70;91.10
13482;DHT22;6813;60.352;15.746;2023-07-31T08:03:39;26.30;91.50
13482;DHT22;6813;60.352;15.746;2023-07-31T08:06:04;26.20;91.00
13482;DHT22;6813;60.352;15.746;2023-07-31T08:08:30;26.40;91.50
13482;DHT22;6813;60.352;15.746;2023-07-31T08:10:56;26.60;91.70
13482;DHT22;6813;60.352;15.746;2023-07-31T08:13:22;26.40;91.30
13482;DHT22;6813;60.352;15.746;2023-07-31T08:15:47;25.80;92.60
13482;DHT22;6813;60.352;15.746;2023-07-31T08:18:13;25.50;94.30
13482;DHT22;6813;60.352;15.746;2023-07-31T08:20:39;25.80;96.90
13482;DHT22;6813;60.352;15.746;2023-07-31T08:23:04;26.20;94.50
13482;DHT22;6813;60.352;15.746;2023-07-31T08:25:30;26.60;94.00
13482;DHT22;6813;60.352;15.746;2023-07-31T08:27:56;27.00;92.30
13482;DHT22;6813;60.352;15.746;2023-07-31T08:30:22;27.00;91.00
13482;DHT22;6813;60.352;15.746;2023-07-31T08:32:49;26.90;91.80
13482;DHT22;6813;60.352;15.746;2023-07-31T08:35:14;27.00;91.70
13482;DHT22;6813;60.352;15.746;2023-07-31T08:37:40;26.90;92.80
13482;DHT22;6813;60.352;15.746;2023-07-31T08:40:06;26.70;90.90
13482;DHT22;6813;60.352;15.746;2023-07-31T08:42:32;26.20;89.70
13482;DHT22;6813;60.352;15.746;2023-07-31T08:44:59;26.30;90.60
13482;DHT22;6813;60.352;15.746;2023-07-31T08:47:27;26.60;90.60
13482;DHT22;6813;60.352;15.746;2023-07-31T08:49:54;26.20;92.00
13482;DHT22;6813;60.352;15.746;2023-07-31T08:52:21;26.10;87.60
13482;DHT22;6813;60.352;15.746;2023-07-31T08:54:46;26.20;92.00
13482;DHT22;6813;60.352;15.746;2023-07-31T08:57:13;26.40;90.40
13482;DHT22;6813;60.352;15.746;2023-07-31T08:59:40;26.30;90.30
13482;DHT22;6813;60.352;15.746;2023-07-31T09:02:08;26.30;88.20
13482;DHT22;6813;60.352;15.746;2023-07-31T09:04:34;25.90;88.30
13482;DHT22;6813;60.352;15.746;2023-07-31T09:07:01;25.90;90.60
13482;DHT22;6813;60.352;15.746;2023-07-31T09:09:29;26.00;90.80
13482;DHT22;6813;60.352;15.746;2023-07-31T09:11:55;26.20;91.60
13482;DHT22;6813;60.352;15.746;2023-07-31T09:14:25;26.40;90.50
13482;DHT22;6813;60.352;15.746;2023-07-31T09:16:55;26.70;93.30
13482;DHT22;6813;60.352;15.746;2023-07-31T09:19:29;26.60;90.00
13482;DHT22;6813;60.352;15.746;2023-07-31T09:21:54;26.10;88.10
13482;DHT22;6813;60.352;15.746;2023-07-31T09:24:31;26.00;90.00
13482;DHT22;6813;60.352;15.746;2023-07-31T09:26:58;25.20;88.90
13482;DHT22;6813;60.352;15.746;2023-07-31T09:29:25;25.00;91.40
13482;DHT22;6813;60.352;15.746;2023-07-31T09:31:52;24.40;90.30
13482;DHT22;6813;60.352;15.746;2023-07-31T09:34:18;24.50;91.10
13482;DHT22;6813;60.352;15.746;2023-07-31T09:36:46;24.40;95.10
13482;DHT22;6813;60.352;15.746;2023-07-31T09:39:14;24.40;93.20
13482;DHT22;6813;60.352;15.746;2023-07-31T09:41:55;24.60;96.90
13482;DHT22;6813;60.352;15.746;2023-07-31T09:44:21;24.90;95.20
13482;DHT22;6813;60.352;15.746;2023-07-31T09:46:47;25.10;94.50
13482;DHT22;6813;60.352;15.746;2023-07-31T09:49:14;25.10;92.20
13482;DHT22;6813;60.352;15.746;2023-07-31T09:51:41;24.30;91.30
13482;DHT22;6813;60.352;15.746;2023-07-31T09:54:15;23.90;92.60
13482;DHT22;6813;60.352;15.746;2023-07-31T09:56:45;23.90;92.70
13482;DHT22;6813;60.352;15.746;2023-07-31T09:59:19;23.80;92.30
13482;DHT22;6813;60.352;15.746;2023-07-31T10:01:46;23.30;94.60
13482;DHT22;6813;60.352;15.746;2023-07-31T10:04:13;23.50;95.30
13482;DHT22;6813;60.352;15.746;2023-07-31T10:06:41;23.70;94.70
13482;DHT22;6813;60.352;15.746;2023-07-31T10:09:13;23.50;93.40
13482;DHT22;6813;60.352;15.746;2023-07-31T10:11:51;23.00;92.60
13482;DHT22;6813;60.352;15.746;2023-07-31T10:14:21;23.10;94.30
13482;DHT22;6813;60.352;15.746;2023-07-31T10:16:49;22.90;94.10
13482;DHT22;6813;60.352;15.746;2023-07-31T10:19:17;22.90;94.80
13482;DHT22;6813;60.352;15.746;2023-07-31T10:21:43;23.10;96.30
13482;DHT22;6813;60.352;15.746;2023-07-31T10:24:09;23.30;95.70
13482;DHT22;6813;60.352;15.746;2023-07-31T10:26:35;23.50;95.40
13482;DHT22;6813;60.352;15.746;2023-07-31T10:29:03;23.60;95.40
13482;DHT22;6813;60.352;15.746;2023-07-31T10:31:30;23.80;94.50
13482;DHT22;6813;60.352;15.746;2023-07-31T10:33:58;23.90;94.60
13482;DHT22;6813;60.352;15.746;2023-07-31T10:36:24;24.00;96.70
13482;DHT22;6813;60.352;15.746;2023-07-31T10:38:51;24.00;97.20
13482;DHT22;6813;60.352;15.746;2023-07-31T10:41:17;24.00;94.90
13482;DHT22;6813;60.352;15.746;2023-07-31T10:43:43;23.90;96.40
13482;DHT22;6813;60.352;15.746;2023-07-31T10:46:12;23.80;96.60
13482;DHT22;6813;60.352;15.746;2023-07-31T10:48:40;23.90;96.90
13482;DHT22;6813;60.352;15.746;2023-07-31T10:51:12;24.10;95.80
13482;DHT22;6813;60.352;15.746;2023-07-31T10:53:39;24.00;96.90
13482;DHT22;6813;60.352;15.746;2023-07-31T10:56:07;23.90;93.30
13482;DHT22;6813;60.352;15.746;2023-07-31T10:58:34;23.90;95.10
13482;DHT22;6813;60.352;15.746;2023-07-31T11:01:03;23.90;93.20
13482;DHT22;6813;60.352;15.746;2023-07-31T11:06:11;23.50;92.80
13482;DHT22;6813;60.352;15.746;2023-07-31T11:08:43;23.30;95.70
13482;DHT22;6813;60.352;15.746;2023-07-31T11:11:14;23.20;93.30
13482;DHT22;6813;60.352;15.746;2023-07-31T11:13:47;23.10;94.20
13482;DHT22;6813;60.352;15.746;2023-07-31T11:16:19;23.20;95.90
13482;DHT22;6813;60.352;15.746;2023-07-31T11:18:46;23.30;95.20
13482;DHT22;6813;60.352;15.746;2023-07-31T11:21:18;23.30;96.60
13482;DHT22;6813;60.352;15.746;2023-07-31T11:23:49;23.50;95.80
13482;DHT22;6813;60.352;15.746;2023-07-31T11:26:16;23.60;95.00
13482;DHT22;6813;60.352;15.746;2023-07-31T11:28:42;23.60;95.80
13482;DHT22;6813;60.352;15.746;2023-07-31T11:31:11;23.60;95.80
13482;DHT22;6813;60.352;15.746;2023-07-31T11:33:37;23.60;93.80
13482;DHT22;6813;60.352;15.746;2023-07-31T11:36:03;23.70;95.00
13482;DHT22;6813;60.352;15.746;2023-07-31T11:38:33;23.60;94.60
13482;DHT22;6813;60.352;15.746;2023-07-31T11:41:03;23.20;95.00
13482;DHT22;6813;60.352;15.746;2023-07-31T11:43:32;22.90;93.10
13482;DHT22;6813;60.352;15.746;2023-07-31T11:45:59;22.40;94.60
13482;DHT22;6813;60.352;15.746;2023-07-31T11:48:33;22.40;94.30
13482;DHT22;6813;60.352;15.746;2023-07-31T11:51:04;22.40;96.60
13482;DHT22;6813;60.352;15.746;2023-07-31T11:53:38;22.30;96.30
13482;DHT22;6813;60.352;15.746;2023-07-31T11:56:10;22.30;95.80
13482;DHT22;6813;60.352;15.746;2023-07-31T11:58:37;21.90;95.80
13482;DHT22;6813;60.352;15.746;2023-07-31T12:01:04;21.80;96.80
13482;DHT22;6813;60.352;15.746;2023-07-31T12:03:31;21.90;97.50
13482;DHT22;6813;60.352;15.746;2023-07-31T12:05:58;21.50;97.60
13482;DHT22;6813;60.352;15.746;2023-07-31T12:08:24;21.20;97.90
13482;DHT22;6813;60.352;15.746;2023-07-31T12:10:51;21.20;98.60
13482;DHT22;6813;60.352;15.746;2023-07-31T12:13:22;21.20;99.80
13482;DHT22;6813;60.352;15.746;2023-07-31T12:15:48;21.50;99.90
13482;DHT22;6813;60.352;15.746;2023-07-31T12:18:18;21.20;98.40
13482;DHT22;6813;60.352;15.746;2023-07-31T12:20:46;21.20;99.90
13482;DHT22;6813;60.352;15.746;2023-07-31T12:23:19;21.50;99.20
13482;DHT22;6813;60.352;15.746;2023-07-31T12:26:07;21.70;99.00
13482;DHT22;6813;60.352;15.746;2023-07-31T12:31:19;22.10;99.90
13482;DHT22;6813;60.352;15.746;2023-07-31T12:33:47;21.90;97.10
13482;DHT22;6813;60.352;15.746;2023-07-31T12:36:21;21.60;98.70
13482;DHT22;6813;60.352;15.746;2023-07-31T12:38:47;21.40;98.80
13482;DHT22;6813;60.352;15.746;2023-07-31T12:41:13;21.30;99.30
13482;DHT22;6813;60.352;15.746;2023-07-31T12:43:41;21.20;99.50
13482;DHT22;6813;60.352;15.746;2023-07-31T12:46:07;21.20;99.90
13482;DHT22;6813;60.352;15.746;2023-07-31T12:48:34;21.10;99.90
13482;DHT22;6813;60.352;15.746;2023-07-31T12:51:00;21.40;99.90
13482;DHT22;6813;60.352;15.746;2023-07-31T12:53:25;21.60;99.90
13482;DHT22;6813;60.352;15.746;2023-07-31T12:55:51;21.90;99.90
13482;DHT22;6813;60.352;15.746;2023-07-31T12:58:17;22.10;99.90
13482;DHT22;6813;60.352;15.746;2023-07-31T13:00:42;22.20;99.60
13482;DHT22;6813;60.352;15.746;2023-07-31T13:03:08;22.30;99.50
13482;DHT22;6813;60.352;15.746;2023-07-31T13:05:34;22.40;98.70
13482;DHT22;6813;60.352;15.746;2023-07-31T13:08:00;22.40;99.90
13482;DHT22;6813;60.352;15.746;2023-07-31T13:10:27;22.50;99.10
13482;DHT22;6813;60.352;15.746;2023-07-31T13:12:54;22.10;97.40
13482;DHT22;6813;60.352;15.746;2023-07-31T13:15:20;22.00;99.30
13482;DHT22;6813;60.352;15.746;2023-07-31T13:17:46;22.10;99.90
13482;DHT22;6813;60.352;15.746;2023-07-31T13:20:12;22.20;99.90
13482;DHT22;6813;60.352;15.746;2023-07-31T13:22:37;22.20;99.20
13482;DHT22;6813;60.352;15.746;2023-07-31T13:25:04;22.20;99.90
13482;DHT22;6813;60.352;15.746;2023-07-31T13:27:30;22.30;99.90
13482;DHT22;6813;60.352;15.746;2023-07-31T13:29:56;22.30;99.50
13482;DHT22;6813;60.352;15.746;2023-07-31T13:32:22;22.30;99.10
13482;DHT22;6813;60.352;15.746;2023-07-31T13:34:48;22.30;99.20
13482;DHT22;6813;60.352;15.746;2023-07-31T13:37:15;22.30;99.90
13482;DHT22;6813;60.352;15.746;2023-07-31T13:39:42;22.40;99.50
13482;DHT22;6813;60.352;15.746;2023-07-31T13:42:08;22.20;99.90
13482;DHT22;6813;60.352;15.746;2023-07-31T13:44:37;22.20;99.50
13482;DHT22;6813;60.352;15.746;2023-07-31T13:47:03;22.10;99.70
13482;DHT22;6813;60.352;15.746;2023-07-31T13:49:29;22.20;99.90
13482;DHT22;6813;60.352;15.746;2023-07-31T13:51:56;22.30;99.90
13482;DHT22;6813;60.352;15.746;2023-07-31T13:54:25;22.20;98.60
13482;DHT22;6813;60.352;15.746;2023-07-31T13:56:51;22.30;99.30
13482;DHT22;6813;60.352;15.746;2023-07-31T13:59:17;22.10;99.20
13482;DHT22;6813;60.352;15.746;2023-07-31T14:01:44;22.20;98.90
13482;DHT22;6813;60.352;15.746;2023-07-31T14:04:10;22.10;98.80
13482;DHT22;6813;60.352;15.746;2023-07-31T14:06:36;22.10;99.00
13482;DHT22;6813;60.352;15.746;2023-07-31T14:09:02;22.10;99.00
13482;DHT22;6813;60.352;15.746;2023-07-31T14:11:28;22.10;98.80
13482;DHT22;6813;60.352;15.746;2023-07-31T14:13:54;22.00;98.80
13482;DHT22;6813;60.352;15.746;2023-07-31T14:16:21;21.90;98.90
13482;DHT22;6813;60.352;15.746;2023-07-31T14:18:47;22.00;99.20
13482;DHT22;6813;60.352;15.746;2023-07-31T14:21:13;21.90;99.00
13482;DHT22;6813;60.352;15.746;2023-07-31T14:23:39;21.90;99.00
13482;DHT22;6813;60.352;15.746;2023-07-31T14:26:05;21.90;99.10
13482;DHT22;6813;60.352;15.746;2023-07-31T14:28:31;21.80;99.50
13482;DHT22;6813;60.352;15.746;2023-07-31T14:30:57;21.90;99.30
13482;DHT22;6813;60.352;15.746;2023-07-31T14:33:23;21.90;99.60
13482;DHT22;6813;60.352;15.746;2023-07-31T14:35:49;21.90;99.50
13482;DHT22;6813;60.352;15.746;2023-07-31T14:38:14;21.90;99.90
13482;DHT22;6813;60.352;15.746;2023-07-31T14:40:41;21.80;99.80
13482;DHT22;6813;60.352;15.746;2023-07-31T14:43:07;21.90;99.50
13482;DHT22;6813;60.352;15.746;2023-07-31T14:45:32;21.80;99.70
13482;DHT22;6813;60.352;15.746;2023-07-31T14:47:58;21.90;99.80
13482;DHT22;6813;60.352;15.746;2023-07-31T14:50:25;21.90;99.90
13482;DHT22;6813;60.352;15.746;2023-07-31T14:52:52;21.70;99.90
13482;DHT22;6813;60.352;15.746;2023-07-31T14:55:18;21.70;99.90
13482;DHT22;6813;60.352;15.746;2023-07-31T14:57:44;21.50;99.90
13482;DHT22;6813;60.352;15.746;2023-07-31T15:00:10;21.50;99.90
13482;DHT22;6813;60.352;15.746;2023-07-31T15:02:37;21.50;99.90
13482;DHT22;6813;60.352;15.746;2023-07-31T15:05:03;21.40;99.90
13482;DHT22;6813;60.352;15.746;2023-07-31T15:07:29;21.30;99.90
13482;DHT22;6813;60.352;15.746;2023-07-31T15:09:55;21.30;99.90
13482;DHT22;6813;60.352;15.746;2023-07-31T15:12:21;21.30;99.90
13482;DHT22;6813;60.352;15.746;2023-07-31T15:14:48;21.30;99.90
13482;DHT22;6813;60.352;15.746;2023-07-31T15:17:14;21.30;99.90
13482;DHT22;6813;60.352;15.746;2023-07-31T15:19:40;21.40;99.90
13482;DHT22;6813;60.352;15.746;2023-07-31T15:22:06;21.30;99.90
13482;DHT22;6813;60.352;15.746;2023-07-31T15:24:32;21.10;99.90
13482;DHT22;6813;60.352;15.746;2023-07-31T15:26:57;21.00;99.90
13482;DHT22;6813;60.352;15.746;2023-07-31T15:29:23;20.90;99.90
13482;DHT22;6813;60.352;15.746;2023-07-31T15:31:49;20.80;99.90
13482;DHT22;6813;60.352;15.746;2023-07-31T15:34:15;20.50;99.90
13482;DHT22;6813;60.352;15.746;2023-07-31T15:36:41;20.40;99.90
13482;DHT22;6813;60.352;15.746;2023-07-31T15:39:07;20.30;99.90
13482;DHT22;6813;60.352;15.746;2023-07-31T15:41:39;20.20;99.90